sensor_id;sensor_type;location;lat;lon;timestamp;P1;durP1;ratioP1;P2;durP2;ratioP2
15358;SDS011;7779;49.596;11.070;2023-03-14T00:02:06;0.67;;;0.30;;
15358;SDS011;7779;49.596;11.070;2023-03-14T00:04:31;0.30;;;0.20;;
15358;SDS011;7779;49.596;11.070;2023-03-14T00:06:57;0.20;;;0.20;;
15358;SDS011;7779;49.596;11.070;2023-03-14T00:09:23;0.20;;;0.10;;
15358;SDS011;7779;49.596;11.070;2023-03-14T00:11:48;0.73;;;0.40;;
15358;SDS011;7779;49.596;11.070;2023-03-14T00:14:14;0.30;;;0.10;;
15358;SDS011;7779;49.596;11.070;2023-03-14T00:16:41;0.20;;;0.20;;
15358;SDS011;7779;49.596;11.070;2023-03-14T00:19:11;0.10;;;0.10;;
15358;SDS011;7779;49.596;11.070;2023-03-14T00:21:36;0.20;;;0.20;;
15358;SDS011;7779;49.596;11.070;2023-03-14T00:24:02;0.50;;;0.20;;
15358;SDS011;7779;49.596;11.070;2023-03-14T00:26:28;0.40;;;0.30;;
15358;SDS011;7779;49.596;11.070;2023-03-14T00:28:53;0.73;;;0.23;;
15358;SDS011;7779;49.596;11.070;2023-03-14T00:31:19;0.93;;;0.33;;
15358;SDS011;7779;49.596;11.070;2023-03-14T00:33:45;0.30;;;0.20;;
15358;SDS011;7779;49.596;11.070;2023-03-14T00:36:12;0.30;;;0.20;;
15358;SDS011;7779;49.596;11.070;2023-03-14T00:38:41;0.47;;;0.30;;
15358;SDS011;7779;49.596;11.070;2023-03-14T00:41:10;0.27;;;0.10;;
15358;SDS011;7779;49.596;11.070;2023-03-14T00:43:40;0.93;;;0.20;;
15358;SDS011;7779;49.596;11.070;2023-03-14T00:46:06;0.40;;;0.20;;
15358;SDS011;7779;49.596;11.070;2023-03-14T00:48:32;0.30;;;0.23;;
15358;SDS011;7779;49.596;11.070;2023-03-14T00:50:59;0.77;;;0.20;;
15358;SDS011;7779;49.596;11.070;2023-03-14T00:53:26;0.50;;;0.30;;
15358;SDS011;7779;49.596;11.070;2023-03-14T00:55:52;0.37;;;0.10;;
15358;SDS011;7779;49.596;11.070;2023-03-14T00:58:18;0.37;;;0.20;;
15358;SDS011;7779;49.596;11.070;2023-03-14T01:00:44;0.27;;;0.17;;
15358;SDS011;7779;49.596;11.070;2023-03-14T01:03:11;0.10;;;0.10;;
15358;SDS011;7779;49.596;11.070;2023-03-14T01:05:39;0.53;;;0.20;;
15358;SDS011;7779;49.596;11.070;2023-03-14T01:08:05;0.30;;;0.10;;
15358;SDS011;7779;49.596;11.070;2023-03-14T01:10:33;0.27;;;0.20;;
15358;SDS011;7779;49.596;11.070;2023-03-14T01:13:04;1.03;;;0.20;;
15358;SDS011;7779;49.596;11.070;2023-03-14T01:15:29;0.23;;;0.13;;
15358;SDS011;7779;49.596;11.070;2023-03-14T01:17:57;0.10;;;0.10;;
15358;SDS011;7779;49.596;11.070;2023-03-14T01:20:23;0.30;;;0.20;;
15358;SDS011;7779;49.596;11.070;2023-03-14T01:22:49;0.10;;;0.10;;
15358;SDS011;7779;49.596;11.070;2023-03-14T01:25:15;0.40;;;0.10;;
15358;SDS011;7779;49.596;11.070;2023-03-14T01:27:42;0.77;;;0.20;;
15358;SDS011;7779;49.596;11.070;2023-03-14T01:30:09;1.53;;;0.20;;
15358;SDS011;7779;49.596;11.070;2023-03-14T01:32:37;0.10;;;0.10;;
15358;SDS011;7779;49.596;11.070;2023-03-14T01:35:04;0.13;;;0.10;;
15358;SDS011;7779;49.596;11.070;2023-03-14T01:37:31;0.10;;;0.00;;
15358;SDS011;7779;49.596;11.070;2023-03-14T01:39:57;0.10;;;0.10;;
15358;SDS011;7779;49.596;11.070;2023-03-14T01:42:23;0.17;;;0.10;;
15358;SDS011;7779;49.596;11.070;2023-03-14T01:44:55;0.50;;;0.20;;
15358;SDS011;7779;49.596;11.070;2023-03-14T01:47:25;0.10;;;0.10;;
15358;SDS011;7779;49.596;11.070;2023-03-14T01:50:06;0.00;;;0.00;;
15358;SDS011;7779;49.596;11.070;2023-03-14T01:52:39;0.10;;;0.10;;
15358;SDS011;7779;49.596;11.070;2023-03-14T01:55:14;0.20;;;0.00;;
15358;SDS011;7779;49.596;11.070;2023-03-14T01:57:51;1.50;;;0.00;;
15358;SDS011;7779;49.596;11.070;2023-03-14T02:00:24;0.03;;;0.00;;
15358;SDS011;7779;49.596;11.070;2023-03-14T02:02:51;0.07;;;0.07;;
15358;SDS011;7779;49.596;11.070;2023-03-14T02:05:23;0.13;;;0.10;;
15358;SDS011;7779;49.596;11.070;2023-03-14T02:08:02;0.00;;;0.00;;
15358;SDS011;7779;49.596;11.070;2023-03-14T02:10:41;0.33;;;0.00;;
15358;SDS011;7779;49.596;11.070;2023-03-14T02:13:12;0.10;;;0.10;;
15358;SDS011;7779;49.596;11.070;2023-03-14T02:16:19;0.30;;;0.00;;
15358;SDS011;7779;49.596;11.070;2023-03-14T02:19:01;0.00;;;0.00;;
15358;SDS011;7779;49.596;11.070;2023-03-14T02:22:02;0.00;;;0.00;;
15358;SDS011;7779;49.596;11.070;2023-03-14T02:24:54;0.00;;;0.00;;
15358;SDS011;7779;49.596;11.070;2023-03-14T02:27:42;0.10;;;0.10;;
15358;SDS011;7779;49.596;11.070;2023-03-14T02:32:44;0.00;;;0.00;;
15358;SDS011;7779;49.596;11.070;2023-03-14T02:35:18;0.00;;;0.00;;
15358;SDS011;7779;49.596;11.070;2023-03-14T02:37:55;0.10;;;0.10;;
15358;SDS011;7779;49.596;11.070;2023-03-14T02:40:44;0.03;;;0.03;;
15358;SDS011;7779;49.596;11.070;2023-03-14T02:43:10;0.10;;;0.10;;
15358;SDS011;7779;49.596;11.070;2023-03-14T02:45:43;0.33;;;0.10;;
15358;SDS011;7779;49.596;11.070;2023-03-14T02:48:16;0.10;;;0.10;;
15358;SDS011;7779;49.596;11.070;2023-03-14T02:51:05;0.20;;;0.10;;
15358;SDS011;7779;49.596;11.070;2023-03-14T02:53:34;0.10;;;0.03;;
15358;SDS011;7779;49.596;11.070;2023-03-14T02:56:07;0.00;;;0.00;;
15358;SDS011;7779;49.596;11.070;2023-03-14T02:58:35;0.00;;;0.00;;
15358;SDS011;7779;49.596;11.070;2023-03-14T03:01:20;0.27;;;0.10;;
15358;SDS011;7779;49.596;11.070;2023-03-14T03:03:46;0.00;;;0.00;;
15358;SDS011;7779;49.596;11.070;2023-03-14T03:06:11;0.10;;;0.00;;
15358;SDS011;7779;49.596;11.070;2023-03-14T03:08:37;0.10;;;0.00;;
15358;SDS011;7779;49.596;11.070;2023-03-14T03:11:03;0.10;;;0.10;;
15358;SDS011;7779;49.596;11.070;2023-03-14T03:13:31;0.27;;;0.00;;
15358;SDS011;7779;49.596;11.070;2023-03-14T03:15:59;0.50;;;0.00;;
15358;SDS011;7779;49.596;11.070;2023-03-14T03:18:25;0.00;;;0.00;;
15358;SDS011;7779;49.596;11.070;2023-03-14T03:20:51;0.77;;;0.10;;
15358;SDS011;7779;49.596;11.070;2023-03-14T03:23:16;0.07;;;0.07;;
15358;SDS011;7779;49.596;11.070;2023-03-14T03:25:47;0.07;;;0.00;;
15358;SDS011;7779;49.596;11.070;2023-03-14T03:28:15;0.30;;;0.20;;
15358;SDS011;7779;49.596;11.070;2023-03-14T03:30:41;0.30;;;0.10;;
15358;SDS011;7779;49.596;11.070;2023-03-14T03:33:08;0.10;;;0.03;;
15358;SDS011;7779;49.596;11.070;2023-03-14T03:35:34;0.30;;;0.10;;
15358;SDS011;7779;49.596;11.070;2023-03-14T03:38:00;0.30;;;0.30;;
15358;SDS011;7779;49.596;11.070;2023-03-14T03:40:26;0.13;;;0.10;;
15358;SDS011;7779;49.596;11.070;2023-03-14T03:42:52;0.17;;;0.10;;
15358;SDS011;7779;49.596;11.070;2023-03-14T03:45:18;0.10;;;0.10;;
15358;SDS011;7779;49.596;11.070;2023-03-14T03:47:50;0.07;;;0.00;;
15358;SDS011;7779;49.596;11.070;2023-03-14T03:50:16;0.43;;;0.20;;
15358;SDS011;7779;49.596;11.070;2023-03-14T03:52:42;0.13;;;0.10;;
15358;SDS011;7779;49.596;11.070;2023-03-14T03:55:08;0.30;;;0.20;;
15358;SDS011;7779;49.596;11.070;2023-03-14T03:57:33;0.20;;;0.20;;
15358;SDS011;7779;49.596;11.070;2023-03-14T03:59:59;0.10;;;0.10;;
15358;SDS011;7779;49.596;11.070;2023-03-14T04:02:26;1.07;;;0.20;;
15358;SDS011;7779;49.596;11.070;2023-03-14T04:04:52;0.17;;;0.10;;
15358;SDS011;7779;49.596;11.070;2023-03-14T04:07:18;0.07;;;0.07;;
15358;SDS011;7779;49.596;11.070;2023-03-14T04:09:43;0.13;;;0.10;;
15358;SDS011;7779;49.596;11.070;2023-03-14T04:12:29;0.10;;;0.10;;
15358;SDS011;7779;49.596;11.070;2023-03-14T04:15:04;0.17;;;0.13;;
15358;SDS011;7779;49.596;11.070;2023-03-14T04:17:30;0.50;;;0.20;;
15358;SDS011;7779;49.596;11.070;2023-03-14T04:19:56;0.10;;;0.10;;
15358;SDS011;7779;49.596;11.070;2023-03-14T04:22:30;0.57;;;0.10;;
15358;SDS011;7779;49.596;11.070;2023-03-14T04:24:56;0.20;;;0.10;;
15358;SDS011;7779;49.596;11.070;2023-03-14T04:27:22;0.73;;;0.10;;
15358;SDS011;7779;49.596;11.070;2023-03-14T04:29:48;0.10;;;0.10;;
15358;SDS011;7779;49.596;11.070;2023-03-14T04:32:18;0.23;;;0.10;;
15358;SDS011;7779;49.596;11.070;2023-03-14T04:34:43;0.23;;;0.10;;
15358;SDS011;7779;49.596;11.070;2023-03-14T04:37:11;0.30;;;0.10;;
15358;SDS011;7779;49.596;11.070;2023-03-14T04:39:40;0.50;;;0.20;;
15358;SDS011;7779;49.596;11.070;2023-03-14T04:42:23;0.30;;;0.10;;
15358;SDS011;7779;49.596;11.070;2023-03-14T04:44:49;0.20;;;0.10;;
15358;SDS011;7779;49.596;11.070;2023-03-14T04:47:15;0.20;;;0.10;;
15358;SDS011;7779;49.596;11.070;2023-03-14T04:49:43;0.10;;;0.00;;
15358;SDS011;7779;49.596;11.070;2023-03-14T04:52:11;0.40;;;0.10;;
15358;SDS011;7779;49.596;11.070;2023-03-14T04:54:37;0.10;;;0.00;;
15358;SDS011;7779;49.596;11.070;2023-03-14T04:57:03;0.00;;;0.00;;
15358;SDS011;7779;49.596;11.070;2023-03-14T04:59:31;0.03;;;0.03;;
15358;SDS011;7779;49.596;11.070;2023-03-14T05:02:05;0.30;;;0.00;;
15358;SDS011;7779;49.596;11.070;2023-03-14T05:04:49;0.20;;;0.00;;
15358;SDS011;7779;49.596;11.070;2023-03-14T05:07:40;0.50;;;0.30;;
15358;SDS011;7779;49.596;11.070;2023-03-14T05:10:21;0.20;;;0.10;;
15358;SDS011;7779;49.596;11.070;2023-03-14T05:13:08;0.20;;;0.10;;
15358;SDS011;7779;49.596;11.070;2023-03-14T05:16:12;0.10;;;0.10;;
15358;SDS011;7779;49.596;11.070;2023-03-14T05:19:01;0.03;;;0.00;;
15358;SDS011;7779;49.596;11.070;2023-03-14T05:22:05;0.13;;;0.07;;
15358;SDS011;7779;49.596;11.070;2023-03-14T05:24:49;0.57;;;0.10;;
15358;SDS011;7779;49.596;11.070;2023-03-14T05:27:33;0.10;;;0.10;;
15358;SDS011;7779;49.596;11.070;2023-03-14T05:30:38;0.00;;;0.00;;
15358;SDS011;7779;49.596;11.070;2023-03-14T05:33:18;0.10;;;0.10;;
15358;SDS011;7779;49.596;11.070;2023-03-14T05:36:02;0.67;;;0.10;;
15358;SDS011;7779;49.596;11.070;2023-03-14T05:38:42;0.10;;;0.10;;
15358;SDS011;7779;49.596;11.070;2023-03-14T05:41:31;0.20;;;0.10;;
15358;SDS011;7779;49.596;11.070;2023-03-14T05:44:17;0.10;;;0.07;;
15358;SDS011;7779;49.596;11.070;2023-03-14T05:47:02;0.10;;;0.00;;
15358;SDS011;7779;49.596;11.070;2023-03-14T05:49:46;0.13;;;0.13;;
15358;SDS011;7779;49.596;11.070;2023-03-14T05:52:21;1.03;;;0.17;;
15358;SDS011;7779;49.596;11.070;2023-03-14T05:54:56;0.40;;;0.27;;
15358;SDS011;7779;49.596;11.070;2023-03-14T05:57:22;0.23;;;0.10;;
15358;SDS011;7779;49.596;11.070;2023-03-14T06:00:02;1.70;;;0.17;;
15358;SDS011;7779;49.596;11.070;2023-03-14T06:02:57;0.43;;;0.10;;
15358;SDS011;7779;49.596;11.070;2023-03-14T06:05:28;0.30;;;0.10;;
15358;SDS011;7779;49.596;11.070;2023-03-14T06:07:58;0.57;;;0.10;;
15358;SDS011;7779;49.596;11.070;2023-03-14T06:10:26;0.10;;;0.10;;
15358;SDS011;7779;49.596;11.070;2023-03-14T06:12:52;0.20;;;0.13;;
15358;SDS011;7779;49.596;11.070;2023-03-14T06:15:19;0.53;;;0.20;;
15358;SDS011;7779;49.596;11.070;2023-03-14T06:17:48;0.83;;;0.20;;
15358;SDS011;7779;49.596;11.070;2023-03-14T06:20:15;0.20;;;0.10;;
15358;SDS011;7779;49.596;11.070;2023-03-14T06:22:41;0.87;;;0.10;;
15358;SDS011;7779;49.596;11.070;2023-03-14T06:25:08;0.20;;;0.17;;
15358;SDS011;7779;49.596;11.070;2023-03-14T06:27:35;0.40;;;0.17;;
15358;SDS011;7779;49.596;11.070;2023-03-14T06:30:01;1.00;;;0.23;;
15358;SDS011;7779;49.596;11.070;2023-03-14T06:32:29;0.23;;;0.13;;
15358;SDS011;7779;49.596;11.070;2023-03-14T06:34:59;0.40;;;0.20;;
15358;SDS011;7779;49.596;11.070;2023-03-14T06:37:27;0.40;;;0.40;;
15358;SDS011;7779;49.596;11.070;2023-03-14T06:39:54;0.60;;;0.20;;
15358;SDS011;7779;49.596;11.070;2023-03-14T06:42:39;0.40;;;0.30;;
15358;SDS011;7779;49.596;11.070;2023-03-14T06:45:05;0.53;;;0.30;;
15358;SDS011;7779;49.596;11.070;2023-03-14T06:47:32;0.53;;;0.37;;
15358;SDS011;7779;49.596;11.070;2023-03-14T06:49:58;0.30;;;0.30;;
15358;SDS011;7779;49.596;11.070;2023-03-14T06:52:23;0.47;;;0.40;;
15358;SDS011;7779;49.596;11.070;2023-03-14T06:54:49;1.53;;;0.30;;
15358;SDS011;7779;49.596;11.070;2023-03-14T06:57:18;0.30;;;0.20;;
15358;SDS011;7779;49.596;11.070;2023-03-14T06:59:44;0.63;;;0.30;;
15358;SDS011;7779;49.596;11.070;2023-03-14T07:02:13;1.23;;;0.20;;
15358;SDS011;7779;49.596;11.070;2023-03-14T07:04:40;0.53;;;0.30;;
15358;SDS011;7779;49.596;11.070;2023-03-14T07:07:06;0.67;;;0.37;;
15358;SDS011;7779;49.596;11.070;2023-03-14T07:09:33;0.20;;;0.20;;
15358;SDS011;7779;49.596;11.070;2023-03-14T07:12:01;1.17;;;0.30;;
15358;SDS011;7779;49.596;11.070;2023-03-14T07:14:29;1.20;;;0.30;;
15358;SDS011;7779;49.596;11.070;2023-03-14T07:16:55;0.30;;;0.17;;
15358;SDS011;7779;49.596;11.070;2023-03-14T07:19:21;0.67;;;0.20;;
15358;SDS011;7779;49.596;11.070;2023-03-14T07:21:47;0.20;;;0.20;;
15358;SDS011;7779;49.596;11.070;2023-03-14T07:24:18;0.50;;;0.20;;
15358;SDS011;7779;49.596;11.070;2023-03-14T07:26:44;0.27;;;0.17;;
15358;SDS011;7779;49.596;11.070;2023-03-14T07:29:09;0.83;;;0.30;;
15358;SDS011;7779;49.596;11.070;2023-03-14T07:31:36;1.20;;;0.43;;
15358;SDS011;7779;49.596;11.070;2023-03-14T07:34:03;0.20;;;0.20;;
15358;SDS011;7779;49.596;11.070;2023-03-14T07:36:33;0.67;;;0.50;;
15358;SDS011;7779;49.596;11.070;2023-03-14T07:38:59;0.43;;;0.30;;
15358;SDS011;7779;49.596;11.070;2023-03-14T07:41:49;0.30;;;0.20;;
15358;SDS011;7779;49.596;11.070;2023-03-14T07:44:32;1.33;;;0.70;;
15358;SDS011;7779;49.596;11.070;2023-03-14T07:46:58;1.90;;;0.47;;
15358;SDS011;7779;49.596;11.070;2023-03-14T07:49:24;1.37;;;0.30;;
15358;SDS011;7779;49.596;11.070;2023-03-14T07:51:49;0.27;;;0.20;;
15358;SDS011;7779;49.596;11.070;2023-03-14T07:54:15;0.40;;;0.40;;
15358;SDS011;7779;49.596;11.070;2023-03-14T07:56:41;0.40;;;0.33;;
15358;SDS011;7779;49.596;11.070;2023-03-14T07:59:07;1.17;;;0.30;;
15358;SDS011;7779;49.596;11.070;2023-03-14T08:01:33;2.00;;;0.50;;
15358;SDS011;7779;49.596;11.070;2023-03-14T08:03:58;1.13;;;0.40;;
15358;SDS011;7779;49.596;11.070;2023-03-14T08:06:24;1.10;;;0.40;;
15358;SDS011;7779;49.596;11.070;2023-03-14T08:08:50;2.03;;;0.40;;
15358;SDS011;7779;49.596;11.070;2023-03-14T08:11:16;0.67;;;0.33;;
15358;SDS011;7779;49.596;11.070;2023-03-14T08:13:41;1.57;;;0.40;;
15358;SDS011;7779;49.596;11.070;2023-03-14T08:16:14;0.37;;;0.30;;
15358;SDS011;7779;49.596;11.070;2023-03-14T08:18:44;0.57;;;0.40;;
15358;SDS011;7779;49.596;11.070;2023-03-14T08:21:11;2.00;;;0.60;;
15358;SDS011;7779;49.596;11.070;2023-03-14T08:23:37;1.63;;;0.50;;
15358;SDS011;7779;49.596;11.070;2023-03-14T08:26:03;1.30;;;0.30;;
15358;SDS011;7779;49.596;11.070;2023-03-14T08:28:29;0.50;;;0.40;;
15358;SDS011;7779;49.596;11.070;2023-03-14T08:30:57;0.70;;;0.40;;
15358;SDS011;7779;49.596;11.070;2023-03-14T08:33:24;1.37;;;0.40;;
15358;SDS011;7779;49.596;11.070;2023-03-14T08:35:55;1.53;;;0.30;;
15358;SDS011;7779;49.596;11.070;2023-03-14T08:38:23;0.93;;;0.40;;
15358;SDS011;7779;49.596;11.070;2023-03-14T08:40:54;1.00;;;0.40;;
15358;SDS011;7779;49.596;11.070;2023-03-14T08:43:25;1.67;;;0.40;;
15358;SDS011;7779;49.596;11.070;2023-03-14T08:45:52;0.63;;;0.40;;
15358;SDS011;7779;49.596;11.070;2023-03-14T08:48:18;0.53;;;0.40;;
15358;SDS011;7779;49.596;11.070;2023-03-14T08:50:45;1.10;;;0.40;;
15358;SDS011;7779;49.596;11.070;2023-03-14T08:53:11;1.10;;;0.40;;
15358;SDS011;7779;49.596;11.070;2023-03-14T08:55:37;1.33;;;0.53;;
15358;SDS011;7779;49.596;11.070;2023-03-14T08:58:02;0.40;;;0.30;;
15358;SDS011;7779;49.596;11.070;2023-03-14T09:00:28;0.83;;;0.40;;
15358;SDS011;7779;49.596;11.070;2023-03-14T09:02:53;0.80;;;0.50;;
15358;SDS011;7779;49.596;11.070;2023-03-14T09:05:19;1.13;;;0.30;;
15358;SDS011;7779;49.596;11.070;2023-03-14T09:07:45;1.53;;;0.50;;
15358;SDS011;7779;49.596;11.070;2023-03-14T09:10:11;0.67;;;0.40;;
15358;SDS011;7779;49.596;11.070;2023-03-14T09:12:37;1.43;;;0.60;;
15358;SDS011;7779;49.596;11.070;2023-03-14T09:15:03;0.60;;;0.40;;
15358;SDS011;7779;49.596;11.070;2023-03-14T09:17:29;2.07;;;0.50;;
15358;SDS011;7779;49.596;11.070;2023-03-14T09:19:55;1.67;;;0.60;;
15358;SDS011;7779;49.596;11.070;2023-03-14T09:22:20;0.67;;;0.30;;
15358;SDS011;7779;49.596;11.070;2023-03-14T09:24:46;0.40;;;0.40;;
15358;SDS011;7779;49.596;11.070;2023-03-14T09:27:12;1.43;;;0.30;;
15358;SDS011;7779;49.596;11.070;2023-03-14T09:29:38;1.00;;;0.33;;
15358;SDS011;7779;49.596;11.070;2023-03-14T09:32:03;0.53;;;0.40;;
15358;SDS011;7779;49.596;11.070;2023-03-14T09:34:29;0.77;;;0.30;;
15358;SDS011;7779;49.596;11.070;2023-03-14T09:36:55;2.03;;;0.40;;
15358;SDS011;7779;49.596;11.070;2023-03-14T09:39:22;0.63;;;0.30;;
15358;SDS011;7779;49.596;11.070;2023-03-14T09:41:48;2.00;;;0.40;;
15358;SDS011;7779;49.596;11.070;2023-03-14T09:44:36;1.37;;;0.40;;
15358;SDS011;7779;49.596;11.070;2023-03-14T09:47:12;1.10;;;0.30;;
15358;SDS011;7779;49.596;11.070;2023-03-14T09:49:41;0.47;;;0.20;;
15358;SDS011;7779;49.596;11.070;2023-03-14T09:52:11;0.30;;;0.27;;
15358;SDS011;7779;49.596;11.070;2023-03-14T09:54:55;0.87;;;0.30;;
15358;SDS011;7779;49.596;11.070;2023-03-14T09:57:25;0.90;;;0.30;;
15358;SDS011;7779;49.596;11.070;2023-03-14T09:59:53;0.60;;;0.47;;
15358;SDS011;7779;49.596;11.070;2023-03-14T10:02:28;0.40;;;0.20;;
15358;SDS011;7779;49.596;11.070;2023-03-14T10:04:59;0.83;;;0.37;;
15358;SDS011;7779;49.596;11.070;2023-03-14T10:07:29;0.70;;;0.20;;
15358;SDS011;7779;49.596;11.070;2023-03-14T10:09:57;0.93;;;0.30;;
15358;SDS011;7779;49.596;11.070;2023-03-14T10:12:32;0.50;;;0.30;;
15358;SDS011;7779;49.596;11.070;2023-03-14T10:15:11;0.73;;;0.30;;
15358;SDS011;7779;49.596;11.070;2023-03-14T10:17:48;0.10;;;0.10;;
15358;SDS011;7779;49.596;11.070;2023-03-14T10:20:29;0.40;;;0.40;;
15358;SDS011;7779;49.596;11.070;2023-03-14T10:25:52;0.40;;;0.20;;
15358;SDS011;7779;49.596;11.070;2023-03-14T10:28:28;0.70;;;0.20;;
15358;SDS011;7779;49.596;11.070;2023-03-14T10:30:58;0.30;;;0.17;;
15358;SDS011;7779;49.596;11.070;2023-03-14T10:33:26;0.60;;;0.20;;
15358;SDS011;7779;49.596;11.070;2023-03-14T10:36:03;1.27;;;0.27;;
15358;SDS011;7779;49.596;11.070;2023-03-14T10:38:46;0.67;;;0.20;;
15358;SDS011;7779;49.596;11.070;2023-03-14T10:41:19;1.10;;;0.43;;
15358;SDS011;7779;49.596;11.070;2023-03-14T10:43:51;0.70;;;0.40;;
15358;SDS011;7779;49.596;11.070;2023-03-14T10:46:23;1.40;;;0.23;;
15358;SDS011;7779;49.596;11.070;2023-03-14T10:49:16;0.70;;;0.30;;
15358;SDS011;7779;49.596;11.070;2023-03-14T10:51:56;0.53;;;0.30;;
15358;SDS011;7779;49.596;11.070;2023-03-14T10:54:38;0.93;;;0.10;;
15358;SDS011;7779;49.596;11.070;2023-03-14T10:57:04;0.80;;;0.40;;
15358;SDS011;7779;49.596;11.070;2023-03-14T10:59:38;0.90;;;0.20;;
15358;SDS011;7779;49.596;11.070;2023-03-14T11:02:14;0.43;;;0.20;;
15358;SDS011;7779;49.596;11.070;2023-03-14T11:05:31;1.13;;;0.30;;
15358;SDS011;7779;49.596;11.070;2023-03-14T11:08:09;0.37;;;0.20;;
15358;SDS011;7779;49.596;11.070;2023-03-14T11:10:45;1.00;;;0.23;;
15358;SDS011;7779;49.596;11.070;2023-03-14T11:13:23;0.53;;;0.20;;
15358;SDS011;7779;49.596;11.070;2023-03-14T11:19:14;0.87;;;0.20;;
15358;SDS011;7779;49.596;11.070;2023-03-14T11:21:55;0.53;;;0.20;;
15358;SDS011;7779;49.596;11.070;2023-03-14T11:27:44;0.20;;;0.20;;
15358;SDS011;7779;49.596;11.070;2023-03-14T11:30:35;0.40;;;0.20;;
15358;SDS011;7779;49.596;11.070;2023-03-14T11:33:24;0.20;;;0.10;;
15358;SDS011;7779;49.596;11.070;2023-03-14T11:36:04;0.20;;;0.10;;
15358;SDS011;7779;49.596;11.070;2023-03-14T11:38:52;0.40;;;0.27;;
15358;SDS011;7779;49.596;11.070;2023-03-14T11:41:30;3.13;;;0.07;;
15358;SDS011;7779;49.596;11.070;2023-03-14T11:44:19;0.20;;;0.10;;
15358;SDS011;7779;49.596;11.070;2023-03-14T11:46:57;0.40;;;0.10;;
15358;SDS011;7779;49.596;11.070;2023-03-14T11:49:38;0.30;;;0.10;;
15358;SDS011;7779;49.596;11.070;2023-03-14T11:52:22;1.40;;;0.20;;
15358;SDS011;7779;49.596;11.070;2023-03-14T11:57:45;0.10;;;0.10;;
15358;SDS011;7779;49.596;11.070;2023-03-14T12:00:19;0.37;;;0.10;;
15358;SDS011;7779;49.596;11.070;2023-03-14T12:06:01;0.10;;;0.10;;
15358;SDS011;7779;49.596;11.070;2023-03-14T12:08:50;0.10;;;0.10;;
15358;SDS011;7779;49.596;11.070;2023-03-14T12:14:17;0.10;;;0.10;;
15358;SDS011;7779;49.596;11.070;2023-03-14T12:16:52;0.40;;;0.10;;
15358;SDS011;7779;49.596;11.070;2023-03-14T12:19:29;0.20;;;0.20;;
15358;SDS011;7779;49.596;11.070;2023-03-14T12:22:07;0.20;;;0.10;;
15358;SDS011;7779;49.596;11.070;2023-03-14T12:24:56;0.30;;;0.20;;
15358;SDS011;7779;49.596;11.070;2023-03-14T12:27:47;0.57;;;0.20;;
15358;SDS011;7779;49.596;11.070;2023-03-14T12:33:11;0.50;;;0.30;;
15358;SDS011;7779;49.596;11.070;2023-03-14T12:35:46;1.33;;;0.20;;
15358;SDS011;7779;49.596;11.070;2023-03-14T12:38:16;0.10;;;0.10;;
15358;SDS011;7779;49.596;11.070;2023-03-14T12:41:03;0.30;;;0.10;;
15358;SDS011;7779;49.596;11.070;2023-03-14T12:46:53;0.20;;;0.10;;
15358;SDS011;7779;49.596;11.070;2023-03-14T12:49:22;0.93;;;0.20;;
15358;SDS011;7779;49.596;11.070;2023-03-14T12:51:59;0.00;;;0.00;;
15358;SDS011;7779;49.596;11.070;2023-03-14T13:00:22;1.13;;;0.10;;
15358;SDS011;7779;49.596;11.070;2023-03-14T13:03:02;0.10;;;0.10;;
15358;SDS011;7779;49.596;11.070;2023-03-14T13:05:51;0.33;;;0.20;;
15358;SDS011;7779;49.596;11.070;2023-03-14T13:08:33;0.27;;;0.20;;
15358;SDS011;7779;49.596;11.070;2023-03-14T13:11:01;0.73;;;0.20;;
15358;SDS011;7779;49.596;11.070;2023-03-14T13:13:31;0.10;;;0.10;;
15358;SDS011;7779;49.596;11.070;2023-03-14T13:16:05;0.10;;;0.10;;
15358;SDS011;7779;49.596;11.070;2023-03-14T13:18:39;0.13;;;0.07;;
15358;SDS011;7779;49.596;11.070;2023-03-14T13:21:11;0.30;;;0.10;;
15358;SDS011;7779;49.596;11.070;2023-03-14T13:23:53;0.07;;;0.07;;
15358;SDS011;7779;49.596;11.070;2023-03-14T13:26:32;0.07;;;0.00;;
15358;SDS011;7779;49.596;11.070;2023-03-14T13:29:14;0.00;;;0.00;;
15358;SDS011;7779;49.596;11.070;2023-03-14T13:31:52;0.00;;;0.00;;
15358;SDS011;7779;49.596;11.070;2023-03-14T13:34:24;0.20;;;0.10;;
15358;SDS011;7779;49.596;11.070;2023-03-14T13:36:56;0.57;;;0.10;;
15358;SDS011;7779;49.596;11.070;2023-03-14T13:39:23;0.13;;;0.10;;
15358;SDS011;7779;49.596;11.070;2023-03-14T13:41:53;0.57;;;0.07;;
15358;SDS011;7779;49.596;11.070;2023-03-14T13:46:57;0.10;;;0.03;;
15358;SDS011;7779;49.596;11.070;2023-03-14T13:49:26;0.00;;;0.00;;
15358;SDS011;7779;49.596;11.070;2023-03-14T13:51:57;0.33;;;0.00;;
15358;SDS011;7779;49.596;11.070;2023-03-14T13:54:23;0.10;;;0.10;;
15358;SDS011;7779;49.596;11.070;2023-03-14T13:57:01;0.43;;;0.03;;
15358;SDS011;7779;49.596;11.070;2023-03-14T13:59:30;0.20;;;0.10;;
15358;SDS011;7779;49.596;11.070;2023-03-14T14:01:59;0.30;;;0.10;;
15358;SDS011;7779;49.596;11.070;2023-03-14T14:04:35;0.17;;;0.10;;
15358;SDS011;7779;49.596;11.070;2023-03-14T14:07:06;0.10;;;0.00;;
15358;SDS011;7779;49.596;11.070;2023-03-14T14:09:40;0.10;;;0.10;;
15358;SDS011;7779;49.596;11.070;2023-03-14T14:12:20;0.23;;;0.23;;
15358;SDS011;7779;49.596;11.070;2023-03-14T14:15:04;0.33;;;0.10;;
15358;SDS011;7779;49.596;11.070;2023-03-14T14:17:43;0.37;;;0.37;;
15358;SDS011;7779;49.596;11.070;2023-03-14T14:20:32;0.20;;;0.10;;
15358;SDS011;7779;49.596;11.070;2023-03-14T14:23:12;0.40;;;0.40;;
15358;SDS011;7779;49.596;11.070;2023-03-14T14:25:54;0.50;;;0.30;;
15358;SDS011;7779;49.596;11.070;2023-03-14T14:28:32;0.30;;;0.30;;
15358;SDS011;7779;49.596;11.070;2023-03-14T14:31:17;0.50;;;0.30;;
15358;SDS011;7779;49.596;11.070;2023-03-14T14:36:30;0.30;;;0.30;;
15358;SDS011;7779;49.596;11.070;2023-03-14T14:39:24;0.43;;;0.30;;
15358;SDS011;7779;49.596;11.070;2023-03-14T14:41:52;0.37;;;0.33;;
15358;SDS011;7779;49.596;11.070;2023-03-14T14:44:21;0.20;;;0.20;;
15358;SDS011;7779;49.596;11.070;2023-03-14T14:46:58;0.33;;;0.20;;
15358;SDS011;7779;49.596;11.070;2023-03-14T14:49:29;0.10;;;0.10;;
15358;SDS011;7779;49.596;11.070;2023-03-14T14:52:00;0.20;;;0.20;;
15358;SDS011;7779;49.596;11.070;2023-03-14T14:54:37;0.10;;;0.10;;
15358;SDS011;7779;49.596;11.070;2023-03-14T14:57:19;0.30;;;0.30;;
15358;SDS011;7779;49.596;11.070;2023-03-14T14:59:48;0.20;;;0.17;;
15358;SDS011;7779;49.596;11.070;2023-03-14T15:05:15;0.10;;;0.10;;
15358;SDS011;7779;49.596;11.070;2023-03-14T15:07:45;0.83;;;0.10;;
15358;SDS011;7779;49.596;11.070;2023-03-14T15:10:15;0.20;;;0.20;;
15358;SDS011;7779;49.596;11.070;2023-03-14T15:12:44;0.10;;;0.10;;
15358;SDS011;7779;49.596;11.070;2023-03-14T15:15:10;0.10;;;0.10;;
15358;SDS011;7779;49.596;11.070;2023-03-14T15:17:37;0.10;;;0.10;;
15358;SDS011;7779;49.596;11.070;2023-03-14T15:20:03;0.27;;;0.27;;
15358;SDS011;7779;49.596;11.070;2023-03-14T15:22:35;0.10;;;0.10;;
15358;SDS011;7779;49.596;11.070;2023-03-14T15:25:00;0.30;;;0.20;;
15358;SDS011;7779;49.596;11.070;2023-03-14T15:27:26;0.80;;;0.30;;
15358;SDS011;7779;49.596;11.070;2023-03-14T15:29:55;1.07;;;0.10;;
15358;SDS011;7779;49.596;11.070;2023-03-14T15:32:21;0.20;;;0.10;;
15358;SDS011;7779;49.596;11.070;2023-03-14T15:34:47;0.20;;;0.20;;
15358;SDS011;7779;49.596;11.070;2023-03-14T15:37:13;0.10;;;0.10;;
15358;SDS011;7779;49.596;11.070;2023-03-14T15:39:41;0.30;;;0.20;;
15358;SDS011;7779;49.596;11.070;2023-03-14T15:42:08;0.10;;;0.10;;
15358;SDS011;7779;49.596;11.070;2023-03-14T15:44:34;0.63;;;0.20;;
15358;SDS011;7779;49.596;11.070;2023-03-14T15:47:00;1.00;;;0.40;;
15358;SDS011;7779;49.596;11.070;2023-03-14T15:49:26;0.20;;;0.20;;
15358;SDS011;7779;49.596;11.070;2023-03-14T15:51:52;0.30;;;0.20;;
15358;SDS011;7779;49.596;11.070;2023-03-14T15:54:18;0.90;;;0.37;;
15358;SDS011;7779;49.596;11.070;2023-03-14T15:56:44;0.90;;;0.40;;
15358;SDS011;7779;49.596;11.070;2023-03-14T15:59:10;0.40;;;0.40;;